sensor_id;sensor_type;location;lat;lon;timestamp;pressure;altitude;pressure_sealevel;temperature;humidity
7660;BME280;3872;47.902;8.162;2023-02-11T00:00:54;93619.59;;;-5.93;100.00
7660;BME280;3872;47.902;8.162;2023-02-11T00:03:21;93609.34;;;-5.93;100.00
7660;BME280;3872;47.902;8.162;2023-02-11T00:05:56;93605.84;;;-5.91;100.00
7660;BME280;3872;47.902;8.162;2023-02-11T00:08:24;93612.41;;;-5.81;100.00
7660;BME280;3872;47.902;8.162;2023-02-11T00:10:51;93610.59;;;-5.63;100.00
7660;BME280;3872;47.902;8.162;2023-02-11T00:13:18;93613.28;;;-5.64;100.00
7660;BME280;3872;47.902;8.162;2023-02-11T00:15:44;93597.72;;;-5.71;100.00
7660;BME280;3872;47.902;8.162;2023-02-11T00:18:11;93608.13;;;-5.72;100.00
7660;BME280;3872;47.902;8.162;2023-02-11T00:20:37;93585.41;;;-5.59;100.00
7660;BME280;3872;47.902;8.162;2023-02-11T00:23:04;93598.94;;;-5.91;100.00
7660;BME280;3872;47.902;8.162;2023-02-11T00:25:32;93597.47;;;-5.94;100.00
7660;BME280;3872;47.902;8.162;2023-02-11T00:28:01;93581.69;;;-5.73;100.00
7660;BME280;3872;47.902;8.162;2023-02-11T00:30:28;93575.84;;;-5.99;100.00
7660;BME280;3872;47.902;8.162;2023-02-11T00:32:54;93576.75;;;-6.08;100.00
7660;BME280;3872;47.902;8.162;2023-02-11T00:35:22;93578.81;;;-6.12;100.00
7660;BME280;3872;47.902;8.162;2023-02-11T00:37:48;93580.84;;;-5.81;100.00
7660;BME280;3872;47.902;8.162;2023-02-11T00:40:15;93579.44;;;-5.68;100.00
7660;BME280;3872;47.902;8.162;2023-02-11T00:42:43;93586.91;;;-5.82;100.00
7660;BME280;3872;47.902;8.162;2023-02-11T00:45:10;93585.09;;;-6.06;100.00
7660;BME280;3872;47.902;8.162;2023-02-11T00:47:36;93588.66;;;-5.99;100.00
7660;BME280;3872;47.902;8.162;2023-02-11T00:50:04;93587.25;;;-5.85;100.00
7660;BME280;3872;47.902;8.162;2023-02-11T00:52:31;93575.69;;;-5.89;100.00
7660;BME280;3872;47.902;8.162;2023-02-11T00:54:58;93578.44;;;-6.17;100.00
7660;BME280;3872;47.902;8.162;2023-02-11T00:57:24;93572.22;;;-6.14;100.00
7660;BME280;3872;47.902;8.162;2023-02-11T00:59:52;93571.66;;;-6.00;100.00
7660;BME280;3872;47.902;8.162;2023-02-11T01:02:19;93570.91;;;-5.84;100.00
7660;BME280;3872;47.902;8.162;2023-02-11T01:04:45;93574.22;;;-6.00;100.00
7660;BME280;3872;47.902;8.162;2023-02-11T01:07:12;93574.28;;;-6.18;100.00
7660;BME280;3872;47.902;8.162;2023-02-11T01:09:38;93575.00;;;-6.08;100.00
7660;BME280;3872;47.902;8.162;2023-02-11T01:12:05;93571.63;;;-6.08;100.00
7660;BME280;3872;47.902;8.162;2023-02-11T01:14:32;93564.53;;;-6.14;100.00
7660;BME280;3872;47.902;8.162;2023-02-11T01:17:00;93563.84;;;-6.24;100.00
7660;BME280;3872;47.902;8.162;2023-02-11T01:19:26;93562.53;;;-6.28;100.00
7660;BME280;3872;47.902;8.162;2023-02-11T01:21:53;93562.16;;;-6.42;100.00
7660;BME280;3872;47.902;8.162;2023-02-11T01:24:20;93562.03;;;-6.32;100.00
7660;BME280;3872;47.902;8.162;2023-02-11T01:26:47;93558.06;;;-6.78;100.00
7660;BME280;3872;47.902;8.162;2023-02-11T01:29:13;93562.75;;;-6.48;100.00
7660;BME280;3872;47.902;8.162;2023-02-11T01:31:40;93570.41;;;-6.22;100.00
7660;BME280;3872;47.902;8.162;2023-02-11T01:34:08;93566.81;;;-6.37;100.00
7660;BME280;3872;47.902;8.162;2023-02-11T01:36:36;93569.25;;;-6.53;100.00
7660;BME280;3872;47.902;8.162;2023-02-11T01:39:03;93577.16;;;-6.47;100.00
7660;BME280;3872;47.902;8.162;2023-02-11T01:41:29;93566.75;;;-6.45;100.00
7660;BME280;3872;47.902;8.162;2023-02-11T01:43:56;93573.50;;;-6.44;100.00
7660;BME280;3872;47.902;8.162;2023-02-11T01:46:32;93578.38;;;-6.33;100.00
7660;BME280;3872;47.902;8.162;2023-02-11T01:49:04;93579.22;;;-6.50;100.00
7660;BME280;3872;47.902;8.162;2023-02-11T01:51:36;93571.53;;;-6.50;100.00
7660;BME280;3872;47.902;8.162;2023-02-11T01:54:05;93571.31;;;-6.83;100.00
7660;BME280;3872;47.902;8.162;2023-02-11T01:56:52;93570.72;;;-6.77;100.00
7660;BME280;3872;47.902;8.162;2023-02-11T01:59:40;93571.13;;;-6.63;100.00
7660;BME280;3872;47.902;8.162;2023-02-11T02:02:12;93560.06;;;-6.64;100.00
7660;BME280;3872;47.902;8.162;2023-02-11T02:04:45;93561.47;;;-6.69;100.00
7660;BME280;3872;47.902;8.162;2023-02-11T02:07:18;93557.59;;;-6.74;100.00
7660;BME280;3872;47.902;8.162;2023-02-11T02:09:56;93551.19;;;-6.78;100.00
7660;BME280;3872;47.902;8.162;2023-02-11T02:12:24;93561.56;;;-6.79;100.00
7660;BME280;3872;47.902;8.162;2023-02-11T02:14:51;93564.47;;;-6.74;100.00
7660;BME280;3872;47.902;8.162;2023-02-11T02:17:25;93554.97;;;-6.82;100.00
7660;BME280;3872;47.902;8.162;2023-02-11T02:20:23;93560.69;;;-6.88;100.00
7660;BME280;3872;47.902;8.162;2023-02-11T02:26:20;93560.06;;;-6.64;100.00
7660;BME280;3872;47.902;8.162;2023-02-11T02:29:13;93549.97;;;-7.09;100.00
7660;BME280;3872;47.902;8.162;2023-02-11T02:32:16;93557.25;;;-6.79;100.00
7660;BME280;3872;47.902;8.162;2023-02-11T02:34:49;93550.38;;;-6.96;100.00
7660;BME280;3872;47.902;8.162;2023-02-11T02:37:22;93538.66;;;-6.63;100.00
7660;BME280;3872;47.902;8.162;2023-02-11T02:39:50;93544.53;;;-6.88;100.00
7660;BME280;3872;47.902;8.162;2023-02-11T02:42:18;93540.31;;;-6.97;100.00
7660;BME280;3872;47.902;8.162;2023-02-11T02:44:47;93530.16;;;-6.63;100.00
7660;BME280;3872;47.902;8.162;2023-02-11T02:47:15;93531.00;;;-6.81;100.00
7660;BME280;3872;47.902;8.162;2023-02-11T02:49:42;93526.81;;;-6.82;100.00
7660;BME280;3872;47.902;8.162;2023-02-11T02:52:21;93521.34;;;-6.87;100.00
7660;BME280;3872;47.902;8.162;2023-02-11T02:55:07;93514.88;;;-6.73;100.00
7660;BME280;3872;47.902;8.162;2023-02-11T02:57:44;93527.66;;;-6.99;100.00
7660;BME280;3872;47.902;8.162;2023-02-11T03:00:22;93514.75;;;-6.72;100.00
7660;BME280;3872;47.902;8.162;2023-02-11T03:02:58;93515.75;;;-6.64;100.00
7660;BME280;3872;47.902;8.162;2023-02-11T03:05:39;93508.31;;;-6.76;100.00
7660;BME280;3872;47.902;8.162;2023-02-11T03:08:13;93506.03;;;-7.04;100.00
7660;BME280;3872;47.902;8.162;2023-02-11T03:10:44;93510.03;;;-6.84;100.00
7660;BME280;3872;47.902;8.162;2023-02-11T03:13:12;93505.56;;;-6.56;100.00
7660;BME280;3872;47.902;8.162;2023-02-11T03:15:43;93500.22;;;-6.89;100.00
7660;BME280;3872;47.902;8.162;2023-02-11T03:18:15;93503.69;;;-6.98;100.00
7660;BME280;3872;47.902;8.162;2023-02-11T03:20:44;93507.69;;;-6.95;100.00
7660;BME280;3872;47.902;8.162;2023-02-11T03:23:15;93505.16;;;-6.69;100.00
7660;BME280;3872;47.902;8.162;2023-02-11T03:25:48;93508.59;;;-7.04;100.00
7660;BME280;3872;47.902;8.162;2023-02-11T03:28:21;93503.63;;;-7.06;100.00
7660;BME280;3872;47.902;8.162;2023-02-11T03:30:54;93501.63;;;-6.94;100.00
7660;BME280;3872;47.902;8.162;2023-02-11T03:33:27;93494.00;;;-7.12;100.00
7660;BME280;3872;47.902;8.162;2023-02-11T03:35:57;93501.66;;;-7.12;100.00
7660;BME280;3872;47.902;8.162;2023-02-11T03:38:30;93499.06;;;-6.94;100.00
7660;BME280;3872;47.902;8.162;2023-02-11T03:40:59;93504.03;;;-6.93;100.00
7660;BME280;3872;47.902;8.162;2023-02-11T03:43:30;93496.81;;;-6.97;100.00
7660;BME280;3872;47.902;8.162;2023-02-11T03:46:00;93484.91;;;-7.06;100.00
7660;BME280;3872;47.902;8.162;2023-02-11T03:48:30;93479.16;;;-7.26;100.00
7660;BME280;3872;47.902;8.162;2023-02-11T03:51:00;93479.03;;;-7.25;100.00
7660;BME280;3872;47.902;8.162;2023-02-11T03:53:28;93477.78;;;-7.56;100.00
7660;BME280;3872;47.902;8.162;2023-02-11T03:55:57;93473.97;;;-7.52;100.00
7660;BME280;3872;47.902;8.162;2023-02-11T03:58:25;93465.84;;;-7.12;100.00
7660;BME280;3872;47.902;8.162;2023-02-11T04:00:52;93464.56;;;-7.34;100.00
7660;BME280;3872;47.902;8.162;2023-02-11T04:03:18;93457.91;;;-7.44;100.00
7660;BME280;3872;47.902;8.162;2023-02-11T04:05:46;93471.25;;;-7.15;100.00
7660;BME280;3872;47.902;8.162;2023-02-11T04:08:13;93470.09;;;-7.21;100.00
7660;BME280;3872;47.902;8.162;2023-02-11T04:10:39;93469.91;;;-7.01;100.00
7660;BME280;3872;47.902;8.162;2023-02-11T04:13:06;93470.59;;;-7.17;100.00
7660;BME280;3872;47.902;8.162;2023-02-11T04:15:32;93467.69;;;-7.22;100.00
7660;BME280;3872;47.902;8.162;2023-02-11T04:17:59;93474.66;;;-7.32;100.00
7660;BME280;3872;47.902;8.162;2023-02-11T04:20:28;93469.88;;;-7.45;100.00
7660;BME280;3872;47.902;8.162;2023-02-11T04:22:55;93472.75;;;-7.66;100.00
7660;BME280;3872;47.902;8.162;2023-02-11T04:25:22;93474.53;;;-7.23;100.00
7660;BME280;3872;47.902;8.162;2023-02-11T04:27:50;93477.84;;;-7.13;100.00
7660;BME280;3872;47.902;8.162;2023-02-11T04:30:17;93490.41;;;-7.19;100.00
7660;BME280;3872;47.902;8.162;2023-02-11T04:32:43;93495.31;;;-7.43;100.00
7660;BME280;3872;47.902;8.162;2023-02-11T04:35:10;93488.50;;;-7.53;100.00
7660;BME280;3872;47.902;8.162;2023-02-11T04:37:36;93496.03;;;-7.51;100.00
7660;BME280;3872;47.902;8.162;2023-02-11T04:40:05;93493.28;;;-7.40;100.00
7660;BME280;3872;47.902;8.162;2023-02-11T04:42:32;93484.50;;;-7.73;100.00
7660;BME280;3872;47.902;8.162;2023-02-11T04:44:58;93488.56;;;-7.80;100.00
7660;BME280;3872;47.902;8.162;2023-02-11T04:47:26;93485.69;;;-7.49;100.00
7660;BME280;3872;47.902;8.162;2023-02-11T04:49:52;93484.56;;;-7.29;100.00
7660;BME280;3872;47.902;8.162;2023-02-11T04:52:19;93497.50;;;-7.31;100.00
7660;BME280;3872;47.902;8.162;2023-02-11T04:54:45;93499.91;;;-7.29;100.00
7660;BME280;3872;47.902;8.162;2023-02-11T04:57:13;93507.72;;;-7.31;100.00
7660;BME280;3872;47.902;8.162;2023-02-11T04:59:40;93513.38;;;-7.27;100.00
7660;BME280;3872;47.902;8.162;2023-02-11T05:02:06;93509.44;;;-7.39;100.00
7660;BME280;3872;47.902;8.162;2023-02-11T05:04:33;93512.09;;;-7.59;100.00
7660;BME280;3872;47.902;8.162;2023-02-11T05:06:59;93512.38;;;-7.79;100.00
7660;BME280;3872;47.902;8.162;2023-02-11T05:09:26;93509.13;;;-7.54;100.00
7660;BME280;3872;47.902;8.162;2023-02-11T05:11:52;93520.59;;;-7.40;100.00
7660;BME280;3872;47.902;8.162;2023-02-11T05:14:20;93530.44;;;-7.45;100.00
7660;BME280;3872;47.902;8.162;2023-02-11T05:16:47;93528.69;;;-7.63;100.00
7660;BME280;3872;47.902;8.162;2023-02-11T05:19:13;93524.31;;;-7.53;100.00
7660;BME280;3872;47.902;8.162;2023-02-11T05:21:40;93521.31;;;-7.30;100.00
7660;BME280;3872;47.902;8.162;2023-02-11T05:24:07;93525.84;;;-7.42;100.00
7660;BME280;3872;47.902;8.162;2023-02-11T05:26:33;93545.00;;;-7.46;100.00
7660;BME280;3872;47.902;8.162;2023-02-11T05:29:00;93527.31;;;-7.22;100.00
7660;BME280;3872;47.902;8.162;2023-02-11T05:31:29;93544.03;;;-7.45;100.00
7660;BME280;3872;47.902;8.162;2023-02-11T05:33:57;93552.81;;;-7.47;100.00
7660;BME280;3872;47.902;8.162;2023-02-11T05:36:23;93538.34;;;-7.21;100.00
7660;BME280;3872;47.902;8.162;2023-02-11T05:38:50;93535.56;;;-7.10;100.00
7660;BME280;3872;47.902;8.162;2023-02-11T05:41:16;93536.22;;;-7.43;100.00
7660;BME280;3872;47.902;8.162;2023-02-11T05:43:43;93526.53;;;-7.40;100.00
7660;BME280;3872;47.902;8.162;2023-02-11T05:46:09;93528.75;;;-7.72;100.00
7660;BME280;3872;47.902;8.162;2023-02-11T05:48:37;93526.44;;;-7.48;100.00
7660;BME280;3872;47.902;8.162;2023-02-11T05:51:04;93512.78;;;-7.21;100.00
7660;BME280;3872;47.902;8.162;2023-02-11T05:53:30;93501.59;;;-7.56;100.00
7660;BME280;3872;47.902;8.162;2023-02-11T05:55:57;93487.16;;;-7.47;100.00
7660;BME280;3872;47.902;8.162;2023-02-11T05:58:28;93495.16;;;-7.24;100.00
7660;BME280;3872;47.902;8.162;2023-02-11T06:00:55;93501.81;;;-7.31;100.00
7660;BME280;3872;47.902;8.162;2023-02-11T06:03:21;93511.59;;;-7.09;100.00
7660;BME280;3872;47.902;8.162;2023-02-11T06:05:49;93508.75;;;-7.24;100.00
7660;BME280;3872;47.902;8.162;2023-02-11T06:08:15;93507.09;;;-7.33;100.00
7660;BME280;3872;47.902;8.162;2023-02-11T06:10:43;93501.66;;;-7.30;100.00
7660;BME280;3872;47.902;8.162;2023-02-11T06:13:10;93498.91;;;-7.19;100.00
7660;BME280;3872;47.902;8.162;2023-02-11T06:15:37;93490.16;;;-7.08;100.00
7660;BME280;3872;47.902;8.162;2023-02-11T06:18:04;93488.00;;;-7.38;100.00
7660;BME280;3872;47.902;8.162;2023-02-11T06:20:30;93499.19;;;-7.22;100.00
7660;BME280;3872;47.902;8.162;2023-02-11T06:22:59;93509.84;;;-7.08;100.00
7660;BME280;3872;47.902;8.162;2023-02-11T06:25:25;93515.91;;;-7.27;100.00
7660;BME280;3872;47.902;8.162;2023-02-11T06:27:52;93517.56;;;-7.71;100.00
7660;BME280;3872;47.902;8.162;2023-02-11T06:30:19;93519.84;;;-7.68;100.00
7660;BME280;3872;47.902;8.162;2023-02-11T06:32:45;93519.34;;;-7.36;100.00
7660;BME280;3872;47.902;8.162;2023-02-11T06:35:13;93509.34;;;-7.12;100.00
7660;BME280;3872;47.902;8.162;2023-02-11T06:37:39;93510.16;;;-7.12;100.00
7660;BME280;3872;47.902;8.162;2023-02-11T06:40:08;93514.22;;;-7.72;100.00
7660;BME280;3872;47.902;8.162;2023-02-11T06:42:34;93500.94;;;-7.22;100.00
7660;BME280;3872;47.902;8.162;2023-02-11T06:45:03;93498.78;;;-6.91;100.00
7660;BME280;3872;47.902;8.162;2023-02-11T06:47:30;93496.84;;;-7.33;100.00
7660;BME280;3872;47.902;8.162;2023-02-11T06:49:57;93500.94;;;-7.04;100.00
7660;BME280;3872;47.902;8.162;2023-02-11T06:52:23;93502.16;;;-7.08;100.00
7660;BME280;3872;47.902;8.162;2023-02-11T06:54:50;93499.25;;;-6.88;100.00
7660;BME280;3872;47.902;8.162;2023-02-11T06:57:18;93500.41;;;-7.08;100.00
7660;BME280;3872;47.902;8.162;2023-02-11T06:59:45;93494.63;;;-7.10;100.00
7660;BME280;3872;47.902;8.162;2023-02-11T07:02:11;93483.69;;;-6.77;100.00
7660;BME280;3872;47.902;8.162;2023-02-11T07:04:38;93473.53;;;-7.12;100.00
7660;BME280;3872;47.902;8.162;2023-02-11T07:07:04;93476.91;;;-6.86;100.00
7660;BME280;3872;47.902;8.162;2023-02-11T07:09:31;93470.50;;;-6.22;100.00
7660;BME280;3872;47.902;8.162;2023-02-11T07:11:57;93476.69;;;-5.99;100.00
7660;BME280;3872;47.902;8.162;2023-02-11T07:14:25;93477.97;;;-5.86;100.00
7660;BME280;3872;47.902;8.162;2023-02-11T07:16:52;93485.78;;;-6.38;100.00
7660;BME280;3872;47.902;8.162;2023-02-11T07:19:18;93478.25;;;-6.06;100.00
7660;BME280;3872;47.902;8.162;2023-02-11T07:21:45;93483.00;;;-5.69;100.00
7660;BME280;3872;47.902;8.162;2023-02-11T07:24:13;93472.28;;;-5.56;100.00
7660;BME280;3872;47.902;8.162;2023-02-11T07:26:39;93480.34;;;-6.01;100.00
7660;BME280;3872;47.902;8.162;2023-02-11T07:29:06;93461.47;;;-5.84;100.00
7660;BME280;3872;47.902;8.162;2023-02-11T07:31:34;93462.38;;;-5.27;100.00
7660;BME280;3872;47.902;8.162;2023-02-11T07:34:01;93460.13;;;-5.05;100.00
7660;BME280;3872;47.902;8.162;2023-02-11T07:36:29;93458.97;;;-4.87;100.00
7660;BME280;3872;47.902;8.162;2023-02-11T07:38:57;93461.84;;;-4.90;100.00
7660;BME280;3872;47.902;8.162;2023-02-11T07:41:25;93462.19;;;-4.77;100.00
7660;BME280;3872;47.902;8.162;2023-02-11T07:43:52;93468.56;;;-4.48;100.00
7660;BME280;3872;47.902;8.162;2023-02-11T07:46:21;93471.88;;;-4.31;100.00
7660;BME280;3872;47.902;8.162;2023-02-11T07:48:50;93480.34;;;-4.15;100.00
7660;BME280;3872;47.902;8.162;2023-02-11T07:51:19;93472.72;;;-4.00;100.00
7660;BME280;3872;47.902;8.162;2023-02-11T07:53:46;93476.28;;;-4.01;100.00
7660;BME280;3872;47.902;8.162;2023-02-11T07:56:14;93480.84;;;-4.19;100.00
7660;BME280;3872;47.902;8.162;2023-02-11T07:58:41;93488.69;;;-3.74;100.00
7660;BME280;3872;47.902;8.162;2023-02-11T08:01:10;93490.59;;;-4.07;100.00
7660;BME280;3872;47.902;8.162;2023-02-11T08:03:37;93486.91;;;-3.73;100.00
7660;BME280;3872;47.902;8.162;2023-02-11T08:06:08;93492.03;;;-3.65;100.00
7660;BME280;3872;47.902;8.162;2023-02-11T08:08:35;93497.63;;;-3.62;100.00
7660;BME280;3872;47.902;8.162;2023-02-11T08:11:05;93492.41;;;-3.45;100.00
7660;BME280;3872;47.902;8.162;2023-02-11T08:13:32;93499.09;;;-3.36;100.00
7660;BME280;3872;47.902;8.162;2023-02-11T08:15:59;93491.91;;;-3.18;100.00
7660;BME280;3872;47.902;8.162;2023-02-11T08:18:25;93490.75;;;-2.93;100.00
7660;BME280;3872;47.902;8.162;2023-02-11T08:20:52;93489.13;;;-2.71;100.00
7660;BME280;3872;47.902;8.162;2023-02-11T08:23:20;93489.97;;;-2.56;100.00
7660;BME280;3872;47.902;8.162;2023-02-11T08:25:47;93485.22;;;-2.15;100.00
7660;BME280;3872;47.902;8.162;2023-02-11T08:28:13;93487.50;;;-1.76;100.00
7660;BME280;3872;47.902;8.162;2023-02-11T08:30:40;93492.81;;;-1.77;100.00
7660;BME280;3872;47.902;8.162;2023-02-11T08:33:06;93485.69;;;-1.61;100.00
7660;BME280;3872;47.902;8.162;2023-02-11T08:35:34;93494.41;;;-1.62;100.00
7660;BME280;3872;47.902;8.162;2023-02-11T08:38:00;93488.25;;;-1.46;100.00
7660;BME280;3872;47.902;8.162;2023-02-11T08:40:28;93489.72;;;-1.22;100.00
7660;BME280;3872;47.902;8.162;2023-02-11T08:42:55;93487.66;;;-1.27;100.00
7660;BME280;3872;47.902;8.162;2023-02-11T08:45:21;93479.81;;;-1.19;100.00
7660;BME280;3872;47.902;8.162;2023-02-11T08:47:48;93480.78;;;-1.55;100.00
7660;BME280;3872;47.902;8.162;2023-02-11T08:50:15;93479.84;;;-1.69;100.00
7660;BME280;3872;47.902;8.162;2023-02-11T08:52:41;93477.22;;;-1.19;100.00
7660;BME280;3872;47.902;8.162;2023-02-11T08:55:09;93467.75;;;-1.83;100.00
7660;BME280;3872;47.902;8.162;2023-02-11T08:57:36;93474.09;;;-1.35;100.00
7660;BME280;3872;47.902;8.162;2023-02-11T09:00:05;93472.56;;;-0.87;100.00
7660;BME280;3872;47.902;8.162;2023-02-11T09:02:31;93472.63;;;-0.81;100.00
7660;BME280;3872;47.902;8.162;2023-02-11T09:04:58;93474.69;;;-0.69;100.00
7660;BME280;3872;47.902;8.162;2023-02-11T09:07:24;93474.16;;;-0.86;100.00
7660;BME280;3872;47.902;8.162;2023-02-11T09:09:51;93475.00;;;-0.58;100.00
7660;BME280;3872;47.902;8.162;2023-02-11T09:12:17;93481.81;;;-0.50;100.00
7660;BME280;3872;47.902;8.162;2023-02-11T09:14:45;93482.16;;;-1.02;100.00
7660;BME280;3872;47.902;8.162;2023-02-11T09:17:12;93477.09;;;-0.12;100.00
7660;BME280;3872;47.902;8.162;2023-02-11T09:19:38;93488.47;;;0.21;100.00
7660;BME280;3872;47.902;8.162;2023-02-11T09:22:05;93484.19;;;0.48;100.00
7660;BME280;3872;47.902;8.162;2023-02-11T09:24:31;93490.19;;;0.49;100.00
7660;BME280;3872;47.902;8.162;2023-02-11T09:26:58;93476.81;;;1.19;100.00
7660;BME280;3872;47.902;8.162;2023-02-11T09:29:24;93470.44;;;1.61;100.00
7660;BME280;3872;47.902;8.162;2023-02-11T09:31:52;93470.22;;;1.82;100.00
7660;BME280;3872;47.902;8.162;2023-02-11T09:34:19;93476.63;;;1.73;100.00
7660;BME280;3872;47.902;8.162;2023-02-11T09:36:46;93473.34;;;2.24;94.72
7660;BME280;3872;47.902;8.162;2023-02-11T09:39:15;93472.91;;;2.91;87.69
7660;BME280;3872;47.902;8.162;2023-02-11T09:42:02;93472.50;;;2.88;84.60
7660;BME280;3872;47.902;8.162;2023-02-11T09:44:33;93474.63;;;3.35;89.30
7660;BME280;3872;47.902;8.162;2023-02-11T09:47:04;93478.84;;;3.86;86.75
7660;BME280;3872;47.902;8.162;2023-02-11T09:49:35;93485.31;;;4.02;82.74
7660;BME280;3872;47.902;8.162;2023-02-11T09:52:07;93483.66;;;4.32;80.78
7660;BME280;3872;47.902;8.162;2023-02-11T09:54:44;93490.53;;;4.45;80.33
7660;BME280;3872;47.902;8.162;2023-02-11T09:57:15;93486.75;;;4.59;74.76
7660;BME280;3872;47.902;8.162;2023-02-11T09:59:41;93495.59;;;4.58;74.30
7660;BME280;3872;47.902;8.162;2023-02-11T10:02:16;93502.31;;;4.84;73.10
7660;BME280;3872;47.902;8.162;2023-02-11T10:05:03;93500.28;;;5.04;71.24
7660;BME280;3872;47.902;8.162;2023-02-11T10:07:41;93488.91;;;5.28;65.69
7660;BME280;3872;47.902;8.162;2023-02-11T10:10:18;93485.31;;;5.82;62.80
7660;BME280;3872;47.902;8.162;2023-02-11T10:13:01;93486.56;;;5.80;56.45
7660;BME280;3872;47.902;8.162;2023-02-11T10:15:35;93482.22;;;6.79;52.40
7660;BME280;3872;47.902;8.162;2023-02-11T10:18:20;93483.06;;;6.67;55.92
7660;BME280;3872;47.902;8.162;2023-02-11T10:21:03;93478.81;;;7.18;55.31
7660;BME280;3872;47.902;8.162;2023-02-11T10:23:33;93481.16;;;7.31;49.85
7660;BME280;3872;47.902;8.162;2023-02-11T10:26:02;93486.91;;;7.45;51.87
7660;BME280;3872;47.902;8.162;2023-02-11T10:28:35;93474.69;;;7.67;53.03
7660;BME280;3872;47.902;8.162;2023-02-11T10:31:06;93481.66;;;8.07;46.99
7660;BME280;3872;47.902;8.162;2023-02-11T10:33:41;93479.41;;;7.82;46.75
7660;BME280;3872;47.902;8.162;2023-02-11T10:36:11;93482.34;;;8.19;46.74
7660;BME280;3872;47.902;8.162;2023-02-11T10:38:38;93472.75;;;8.41;44.48
7660;BME280;3872;47.902;8.162;2023-02-11T10:41:04;93473.41;;;8.70;43.98
7660;BME280;3872;47.902;8.162;2023-02-11T10:43:32;93475.28;;;8.75;47.02
7660;BME280;3872;47.902;8.162;2023-02-11T10:46:01;93469.13;;;9.56;45.61
7660;BME280;3872;47.902;8.162;2023-02-11T10:48:43;93474.03;;;9.74;42.65
7660;BME280;3872;47.902;8.162;2023-02-11T10:51:29;93470.69;;;10.16;41.24
7660;BME280;3872;47.902;8.162;2023-02-11T10:54:10;93469.84;;;10.05;41.39
7660;BME280;3872;47.902;8.162;2023-02-11T10:56:40;93467.31;;;9.89;42.62
7660;BME280;3872;47.902;8.162;2023-02-11T10:59:14;93454.56;;;10.39;38.93
7660;BME280;3872;47.902;8.162;2023-02-11T11:01:46;93452.56;;;10.51;39.04
7660;BME280;3872;47.902;8.162;2023-02-11T11:04:37;93450.63;;;10.84;39.06
7660;BME280;3872;47.902;8.162;2023-02-11T11:07:14;93448.94;;;10.68;40.61
7660;BME280;3872;47.902;8.162;2023-02-11T11:09:45;93444.00;;;11.49;37.36
7660;BME280;3872;47.902;8.162;2023-02-11T11:12:24;93443.25;;;11.63;35.52
7660;BME280;3872;47.902;8.162;2023-02-11T11:14:53;93448.56;;;11.94;33.34
7660;BME280;3872;47.902;8.162;2023-02-11T11:17:20;93440.91;;;11.82;34.59
7660;BME280;3872;47.902;8.162;2023-02-11T11:19:48;93438.28;;;11.92;38.56
7660;BME280;3872;47.902;8.162;2023-02-11T11:22:20;93439.31;;;12.32;37.86
7660;BME280;3872;47.902;8.162;2023-02-11T11:24:47;93443.56;;;11.97;37.21
7660;BME280;3872;47.902;8.162;2023-02-11T11:27:22;93432.97;;;12.48;33.40
7660;BME280;3872;47.902;8.162;2023-02-11T11:29:51;93429.28;;;12.49;33.49
7660;BME280;3872;47.902;8.162;2023-02-11T11:32:21;93423.94;;;12.69;32.75
7660;BME280;3872;47.902;8.162;2023-02-11T11:34:52;93422.19;;;12.19;33.70
7660;BME280;3872;47.902;8.162;2023-02-11T11:37:23;93410.25;;;12.47;32.65
7660;BME280;3872;47.902;8.162;2023-02-11T11:39:55;93408.72;;;12.26;34.62
7660;BME280;3872;47.902;8.162;2023-02-11T11:42:27;93399.47;;;13.18;31.67
7660;BME280;3872;47.902;8.162;2023-02-11T11:44:59;93398.41;;;13.19;34.84
7660;BME280;3872;47.902;8.162;2023-02-11T11:47:33;93395.38;;;13.80;32.66
7660;BME280;3872;47.902;8.162;2023-02-11T11:50:21;93394.72;;;13.15;34.33
7660;BME280;3872;47.902;8.162;2023-02-11T11:52:55;93388.94;;;13.03;32.07
7660;BME280;3872;47.902;8.162;2023-02-11T11:55:26;93387.72;;;13.39;31.37
7660;BME280;3872;47.902;8.162;2023-02-11T11:57:54;93389.66;;;14.01;29.88
7660;BME280;3872;47.902;8.162;2023-02-11T12:00:26;93391.25;;;14.31;28.88
7660;BME280;3872;47.902;8.162;2023-02-11T12:03:28;93393.69;;;13.94;28.08
7660;BME280;3872;47.902;8.162;2023-02-11T12:06:11;93388.91;;;13.96;29.50
7660;BME280;3872;47.902;8.162;2023-02-11T12:08:50;93380.41;;;14.62;30.32
7660;BME280;3872;47.902;8.162;2023-02-11T12:11:25;93375.81;;;14.91;27.43
7660;BME280;3872;47.902;8.162;2023-02-11T12:14:05;93380.28;;;14.14;28.33
7660;BME280;3872;47.902;8.162;2023-02-11T12:16:40;93381.34;;;14.71;27.15
7660;BME280;3872;47.902;8.162;2023-02-11T12:19:23;93380.91;;;14.35;28.40
7660;BME280;3872;47.902;8.162;2023-02-11T12:22:08;93386.25;;;13.62;29.11
7660;BME280;3872;47.902;8.162;2023-02-11T12:24:53;93381.22;;;14.28;29.89
7660;BME280;3872;47.902;8.162;2023-02-11T12:27:40;93376.31;;;14.93;29.35
7660;BME280;3872;47.902;8.162;2023-02-11T12:30:20;93382.41;;;13.44;28.13
7660;BME280;3872;47.902;8.162;2023-02-11T12:32:55;93373.38;;;14.95;26.81
7660;BME280;3872;47.902;8.162;2023-02-11T12:35:29;93374.28;;;15.09;29.48
7660;BME280;3872;47.902;8.162;2023-02-11T12:38:24;93368.13;;;15.56;27.19
7660;BME280;3872;47.902;8.162;2023-02-11T12:41:04;93373.28;;;15.42;26.45
7660;BME280;3872;47.902;8.162;2023-02-11T12:43:36;93376.44;;;15.44;26.58
7660;BME280;3872;47.902;8.162;2023-02-11T12:49:32;93372.94;;;15.49;25.23
7660;BME280;3872;47.902;8.162;2023-02-11T12:52:13;93370.78;;;15.51;23.88
7660;BME280;3872;47.902;8.162;2023-02-11T12:54:50;93374.72;;;15.35;24.96
7660;BME280;3872;47.902;8.162;2023-02-11T12:57:21;93369.50;;;15.29;23.77
7660;BME280;3872;47.902;8.162;2023-02-11T12:59:55;93375.38;;;15.26;24.33
7660;BME280;3872;47.902;8.162;2023-02-11T13:02:31;93375.47;;;15.40;24.84
7660;BME280;3872;47.902;8.162;2023-02-11T13:05:04;93373.44;;;15.32;23.75
7660;BME280;3872;47.902;8.162;2023-02-11T13:07:38;93370.44;;;15.39;23.98
7660;BME280;3872;47.902;8.162;2023-02-11T13:10:23;93364.47;;;15.09;24.67
7660;BME280;3872;47.902;8.162;2023-02-11T13:12:51;93367.53;;;14.98;23.41
7660;BME280;3872;47.902;8.162;2023-02-11T13:15:37;93361.63;;;14.82;23.06
7660;BME280;3872;47.902;8.162;2023-02-11T13:18:13;93361.34;;;14.83;23.77
7660;BME280;3872;47.902;8.162;2023-02-11T13:20:46;93364.91;;;15.16;23.58
7660;BME280;3872;47.902;8.162;2023-02-11T13:23:20;93366.75;;;12.24;24.67
7660;BME280;3872;47.902;8.162;2023-02-11T13:25:54;93360.16;;;14.47;27.11
7660;BME280;3872;47.902;8.162;2023-02-11T13:28:31;93365.47;;;15.56;25.10
7660;BME280;3872;47.902;8.162;2023-02-11T13:31:01;93359.09;;;15.71;25.47
7660;BME280;3872;47.902;8.162;2023-02-11T13:33:34;93356.97;;;15.91;24.75
7660;BME280;3872;47.902;8.162;2023-02-11T13:36:18;93359.63;;;16.37;24.84
7660;BME280;3872;47.902;8.162;2023-02-11T13:38:57;93364.38;;;16.54;24.46